createdAt,value
2023-05-21T00:04:45.038Z,100.00
2023-05-21T00:09:49.214Z,100.00
2023-05-21T00:14:53.810Z,100.00
2023-05-21T00:20:00.344Z,100.00
2023-05-21T00:25:05.202Z,100.00
2023-05-21T00:30:10.133Z,100.00
2023-05-21T00:35:16.529Z,100.00
2023-05-21T00:40:20.986Z,100.00
2023-05-21T00:45:25.819Z,100.00
2023-05-21T00:50:32.332Z,100.00
2023-05-21T00:55:36.843Z,100.00
2023-05-21T01:00:41.990Z,100.00
2023-05-21T01:05:49.231Z,100.00
2023-05-21T01:10:54.502Z,100.00
2023-05-21T01:15:59.491Z,100.00
2023-05-21T01:21:07.607Z,100.00
2023-05-21T01:26:14.317Z,100.00
2023-05-21T01:31:25.514Z,100.00
2023-05-21T01:36:41.090Z,100.00
2023-05-21T01:41:47.537Z,100.00
2023-05-21T01:46:54.132Z,100.00
2023-05-21T01:51:58.815Z,100.00
2023-05-21T01:57:05.012Z,100.00
2023-05-21T02:02:09.432Z,100.00
2023-05-21T02:07:15.399Z,100.00
2023-05-21T02:12:22.249Z,100.00
2023-05-21T02:17:26.739Z,100.00
2023-05-21T02:22:31.562Z,100.00
2023-05-21T02:27:37.963Z,100.00
2023-05-21T02:32:43.308Z,100.00
2023-05-21T02:37:49.205Z,100.00
2023-05-21T02:42:55.185Z,100.00
2023-05-21T02:47:59.723Z,100.00
2023-05-21T02:53:04.631Z,100.00
2023-05-21T02:58:13.884Z,100.00
2023-05-21T03:03:19.045Z,100.00
2023-05-21T03:08:23.508Z,100.00
2023-05-21T03:13:29.594Z,100.00
2023-05-21T03:18:34.234Z,100.00
2023-05-21T03:23:38.605Z,100.00
2023-05-21T03:28:44.688Z,100.00
2023-05-21T03:33:49.758Z,100.00
2023-05-21T03:39:07.156Z,100.00
2023-05-21T03:44:13.693Z,100.00
2023-05-21T03:49:40.096Z,100.00
2023-05-21T03:54:46.284Z,100.00
2023-05-21T03:59:52.358Z,100.00
2023-05-21T04:04:57.032Z,100.00
2023-05-21T04:10:02.427Z,100.00
2023-05-21T04:15:09.861Z,100.00
2023-05-21T04:20:17.186Z,100.00
2023-05-21T04:25:23.441Z,100.00
2023-05-21T04:30:29.488Z,100.00
2023-05-21T04:35:34.246Z,100.00
2023-05-21T04:40:38.818Z,100.00
2023-05-21T04:45:44.691Z,100.00
2023-05-21T04:50:48.928Z,99.27
2023-05-21T04:55:53.544Z,98.39
2023-05-21T05:01:03.300Z,97.44
2023-05-21T05:06:09.289Z,95.46
2023-05-21T05:11:14.222Z,93.18
2023-05-21T05:16:25.588Z,93.49
2023-05-21T05:21:33.437Z,92.73
2023-05-21T05:26:39.003Z,91.45
2023-05-21T05:31:44.678Z,90.60
2023-05-21T05:36:50.367Z,89.59
2023-05-21T05:41:54.826Z,88.95
2023-05-21T05:47:00.512Z,86.98
2023-05-21T05:52:06.104Z,84.91
2023-05-21T05:57:10.764Z,76.86
2023-05-21T06:02:17.706Z,64.31
2023-05-21T06:07:22.315Z,59.70
2023-05-21T06:12:27.084Z,52.67
2023-05-21T06:17:34.132Z,51.44
2023-05-21T06:22:39.432Z,46.37
2023-05-21T06:27:45.738Z,47.64
2023-05-21T06:32:58.585Z,45.18
2023-05-21T06:38:03.316Z,40.87
2023-05-21T06:43:08.017Z,38.09
2023-05-21T06:48:43.487Z,37.08
2023-05-21T06:53:48.271Z,38.01
2023-05-21T06:58:53.468Z,35.80
2023-05-21T07:04:00.148Z,34.27
2023-05-21T07:09:05.694Z,33.33
2023-05-21T07:14:10.583Z,32.02
2023-05-21T07:19:17.673Z,32.05
2023-05-21T07:24:22.487Z,31.87
2023-05-21T07:29:27.047Z,32.04
2023-05-21T07:34:33.316Z,30.78
2023-05-21T07:39:38.027Z,32.07
2023-05-21T07:44:43.498Z,30.95
2023-05-21T07:49:49.204Z,30.26
2023-05-21T07:54:53.776Z,29.03
2023-05-21T07:59:59.411Z,28.00
2023-05-21T08:05:08.114Z,28.70
2023-05-21T08:10:12.853Z,27.78
2023-05-21T08:15:17.775Z,28.11
2023-05-21T08:20:24.851Z,27.99
2023-05-21T08:25:29.814Z,27.35
2023-05-21T08:30:35.427Z,27.93
2023-05-21T08:35:41.714Z,29.74
2023-05-21T08:41:02.118Z,28.10
2023-05-21T08:46:08.158Z,29.38
2023-05-21T08:51:16.667Z,28.55
2023-05-21T08:56:26.170Z,29.52
2023-05-21T09:01:34.790Z,29.05
2023-05-21T09:06:48.292Z,30.74
2023-05-21T09:11:57.875Z,31.27
2023-05-21T09:17:02.146Z,32.29
2023-05-21T09:22:08.402Z,32.84
2023-05-21T09:27:12.800Z,31.89
2023-05-21T09:32:19.303Z,32.71
2023-05-21T09:37:27.395Z,35.16
2023-05-21T09:42:32.486Z,35.27
2023-05-21T09:47:42.838Z,34.72
2023-05-21T09:52:50.626Z,34.87
2023-05-21T09:57:55.068Z,35.20
2023-05-21T10:03:03.155Z,33.67
2023-05-21T10:08:12.609Z,34.44
2023-05-21T10:13:17.892Z,33.79
2023-05-21T10:18:23.833Z,33.56
2023-05-21T10:23:30.616Z,33.56
2023-05-21T10:28:35.370Z,32.21
2023-05-21T10:33:40.272Z,31.98
2023-05-21T10:38:47.107Z,32.04
2023-05-21T10:44:02.620Z,32.59
2023-05-21T10:49:27.073Z,33.42
2023-05-21T10:54:55.868Z,32.45
2023-05-21T11:00:01.118Z,32.07
2023-05-21T11:05:06.292Z,33.44
2023-05-21T11:10:37.577Z,32.20
2023-05-21T11:16:06.021Z,33.19
2023-05-21T11:21:11.852Z,33.09
2023-05-21T11:26:21.694Z,31.42
2023-05-21T11:31:34.465Z,31.50
2023-05-21T11:36:39.297Z,32.22
2023-05-21T11:42:03.092Z,32.86
2023-05-21T11:47:10.236Z,32.97
2023-05-21T11:52:15.584Z,31.89
2023-05-21T11:57:21.415Z,31.48
2023-05-21T12:02:27.760Z,30.88
2023-05-21T12:07:32.148Z,30.29
2023-05-21T12:12:53.261Z,29.78
2023-05-21T12:17:59.276Z,30.17
2023-05-21T12:23:03.670Z,30.61
2023-05-21T12:28:09.394Z,30.17
2023-05-21T12:33:14.383Z,29.99
2023-05-21T12:38:18.842Z,29.38
2023-05-21T12:43:24.814Z,30.31
2023-05-21T12:48:29.303Z,30.56
2023-05-21T12:53:38.370Z,30.19
2023-05-21T12:58:44.387Z,28.34
2023-05-21T13:03:49.012Z,28.31
2023-05-21T13:08:53.265Z,27.95
2023-05-21T13:13:59.037Z,28.04
2023-05-21T13:19:03.563Z,28.14
2023-05-21T13:24:08.771Z,27.77
2023-05-21T13:29:15.435Z,27.30
2023-05-21T13:34:19.692Z,27.40
2023-05-21T13:39:27.807Z,26.91
2023-05-21T13:44:36.482Z,26.72
2023-05-21T13:49:41.593Z,26.77
2023-05-21T13:54:46.152Z,26.47
2023-05-21T13:59:51.950Z,27.89
2023-05-21T14:04:58.035Z,26.90
2023-05-21T14:10:03.125Z,28.18
2023-05-21T14:15:10.027Z,28.30
2023-05-21T14:20:14.640Z,29.13
2023-05-21T14:25:19.276Z,29.46
2023-05-21T14:30:24.981Z,30.38
2023-05-21T14:35:29.173Z,30.19
2023-05-21T14:40:33.273Z,31.01
2023-05-21T14:45:39.276Z,29.71
2023-05-21T14:50:43.781Z,30.57
2023-05-21T14:55:48.117Z,31.00
2023-05-21T15:00:53.839Z,31.99
2023-05-21T15:05:58.868Z,32.14
2023-05-21T15:11:03.100Z,31.71
2023-05-21T15:16:09.449Z,32.73
2023-05-21T15:21:13.634Z,33.67
2023-05-21T15:26:18.057Z,34.04
2023-05-21T15:31:23.693Z,34.98
2023-05-21T15:36:28.222Z,34.90
2023-05-21T15:41:36.548Z,35.30
2023-05-21T15:46:42.421Z,35.96
2023-05-21T15:51:47.076Z,36.35
2023-05-21T15:56:52.012Z,35.67
2023-05-21T16:01:58.357Z,35.61
2023-05-21T16:07:02.786Z,37.02
2023-05-21T16:12:07.859Z,38.43
2023-05-21T16:17:13.690Z,38.57
2023-05-21T16:22:20.429Z,39.35
2023-05-21T16:27:25.386Z,39.89
2023-05-21T16:32:31.012Z,39.64
2023-05-21T16:37:35.706Z,41.74
2023-05-21T16:42:40.010Z,43.66
2023-05-21T16:47:45.762Z,45.89
2023-05-21T16:52:50.169Z,45.52
2023-05-21T16:57:54.645Z,46.29
2023-05-21T17:03:00.567Z,46.98
2023-05-21T17:08:05.408Z,46.95
2023-05-21T17:13:21.589Z,46.57
2023-05-21T17:18:28.075Z,47.42
2023-05-21T17:23:32.288Z,48.53
2023-05-21T17:28:36.839Z,48.31
2023-05-21T17:33:42.623Z,48.84
2023-05-21T17:38:47.159Z,49.36
2023-05-21T17:43:51.312Z,50.08
2023-05-21T17:48:56.898Z,49.07
2023-05-21T17:54:01.529Z,49.55
2023-05-21T17:59:05.934Z,50.10
2023-05-21T18:04:13.136Z,50.54
2023-05-21T18:09:17.483Z,49.66
2023-05-21T18:14:22.184Z,52.10
2023-05-21T18:19:27.904Z,52.44
2023-05-21T18:24:32.172Z,52.87
2023-05-21T18:29:36.915Z,53.37
2023-05-21T18:34:43.882Z,53.59
2023-05-21T18:39:48.021Z,54.58
2023-05-21T18:44:52.859Z,54.57
2023-05-21T18:49:58.526Z,56.36
2023-05-21T18:55:02.783Z,56.35
2023-05-21T19:00:09.792Z,57.22
2023-05-21T19:05:16.219Z,57.53
2023-05-21T19:10:21.486Z,58.83
2023-05-21T19:15:25.763Z,58.89
2023-05-21T19:20:31.462Z,59.78
2023-05-21T19:25:36.384Z,60.22
2023-05-21T19:30:40.793Z,60.41
2023-05-21T19:35:48.122Z,61.61
2023-05-21T19:40:52.271Z,63.39
2023-05-21T19:45:57.326Z,63.20
2023-05-21T19:51:03.032Z,64.21
2023-05-21T19:56:08.112Z,64.07
2023-05-21T20:01:12.473Z,63.54
2023-05-21T20:06:20.891Z,63.29
2023-05-21T20:11:25.429Z,64.04
2023-05-21T20:16:30.331Z,64.19
2023-05-21T20:21:38.417Z,65.06
2023-05-21T20:26:45.055Z,65.86
2023-05-21T20:31:49.217Z,65.93
2023-05-21T20:36:58.364Z,65.42
2023-05-21T20:42:02.754Z,65.76
2023-05-21T20:47:07.414Z,66.29
2023-05-21T20:52:13.078Z,65.50
2023-05-21T20:57:17.540Z,66.03
2023-05-21T21:02:23.124Z,65.62
2023-05-21T21:07:32.115Z,65.10
2023-05-21T21:12:36.607Z,64.34
2023-05-21T21:17:40.913Z,65.32
2023-05-21T21:22:46.835Z,65.42
2023-05-21T21:27:50.950Z,65.76
2023-05-21T21:32:55.489Z,65.95
2023-05-21T21:38:01.047Z,64.99
2023-05-21T21:43:05.215Z,65.29
2023-05-21T21:48:09.424Z,63.44
2023-05-21T21:53:15.298Z,65.18
2023-05-21T21:58:19.451Z,64.10
2023-05-21T22:03:23.873Z,65.11
2023-05-21T22:08:29.700Z,65.21
2023-05-21T22:13:34.760Z,64.69
2023-05-21T22:18:41.259Z,66.13
2023-05-21T22:23:47.622Z,64.54
2023-05-21T22:28:52.317Z,64.28
2023-05-21T22:33:56.414Z,64.91
2023-05-21T22:39:01.981Z,65.11
2023-05-21T22:44:06.710Z,64.72
2023-05-21T22:49:11.485Z,65.15
2023-05-21T22:54:17.084Z,64.50
2023-05-21T22:59:21.388Z,66.46
2023-05-21T23:04:35.781Z,64.87
2023-05-21T23:09:46.991Z,65.58
2023-05-21T23:14:51.448Z,65.76
2023-05-21T23:19:56.401Z,65.59
2023-05-21T23:25:02.200Z,66.27
2023-05-21T23:30:07.641Z,66.01
2023-05-21T23:35:12.020Z,66.82
2023-05-21T23:40:17.741Z,66.55
2023-05-21T23:45:21.972Z,66.62
2023-05-21T23:50:27.263Z,66.11
2023-05-21T23:55:32.794Z,66.68
